sensor_id;sensor_type;location;lat;lon;timestamp;P1;durP1;ratioP1;P2;durP2;ratioP2
28968;SDS011;16076;51.194;6.642;2022-08-14T00:00:51;4.53;;;2.90;;
28968;SDS011;16076;51.194;6.642;2022-08-14T00:03:20;3.72;;;2.78;;
28968;SDS011;16076;51.194;6.642;2022-08-14T00:05:59;3.58;;;2.67;;
28968;SDS011;16076;51.194;6.642;2022-08-14T00:08:32;3.50;;;2.80;;
28968;SDS011;16076;51.194;6.642;2022-08-14T00:11:00;4.18;;;3.25;;
28968;SDS011;16076;51.194;6.642;2022-08-14T00:13:26;4.72;;;3.42;;
28968;SDS011;16076;51.194;6.642;2022-08-14T00:15:54;5.65;;;2.95;;
28968;SDS011;16076;51.194;6.642;2022-08-14T00:18:26;6.82;;;3.03;;
28968;SDS011;16076;51.194;6.642;2022-08-14T00:20:58;7.60;;;3.40;;
28968;SDS011;16076;51.194;6.642;2022-08-14T00:23:27;5.78;;;3.38;;
28968;SDS011;16076;51.194;6.642;2022-08-14T00:25:56;7.38;;;3.35;;
28968;SDS011;16076;51.194;6.642;2022-08-14T00:28:26;5.40;;;2.88;;
28968;SDS011;16076;51.194;6.642;2022-08-14T00:30:53;3.90;;;3.05;;
28968;SDS011;16076;51.194;6.642;2022-08-14T00:33:24;3.95;;;3.50;;
28968;SDS011;16076;51.194;6.642;2022-08-14T00:35:56;4.32;;;3.50;;
28968;SDS011;16076;51.194;6.642;2022-08-14T00:38:22;5.43;;;3.13;;
28968;SDS011;16076;51.194;6.642;2022-08-14T00:40:51;4.95;;;3.22;;
28968;SDS011;16076;51.194;6.642;2022-08-14T00:43:21;5.80;;;3.22;;
28968;SDS011;16076;51.194;6.642;2022-08-14T00:45:47;4.20;;;3.15;;
28968;SDS011;16076;51.194;6.642;2022-08-14T00:48:16;3.90;;;3.50;;
28968;SDS011;16076;51.194;6.642;2022-08-14T00:50:43;4.28;;;3.70;;
28968;SDS011;16076;51.194;6.642;2022-08-14T00:53:09;5.68;;;3.03;;
28968;SDS011;16076;51.194;6.642;2022-08-14T00:55:35;6.15;;;3.20;;
28968;SDS011;16076;51.194;6.642;2022-08-14T00:58:07;5.90;;;3.15;;
28968;SDS011;16076;51.194;6.642;2022-08-14T01:00:51;4.65;;;3.17;;
28968;SDS011;16076;51.194;6.642;2022-08-14T01:03:20;5.07;;;3.80;;
28968;SDS011;16076;51.194;6.642;2022-08-14T01:05:50;4.77;;;3.50;;
28968;SDS011;16076;51.194;6.642;2022-08-14T01:08:20;6.80;;;4.00;;
28968;SDS011;16076;51.194;6.642;2022-08-14T01:10:50;4.83;;;3.83;;
28968;SDS011;16076;51.194;6.642;2022-08-14T01:13:27;6.15;;;3.58;;
28968;SDS011;16076;51.194;6.642;2022-08-14T01:16:05;4.50;;;3.42;;
28968;SDS011;16076;51.194;6.642;2022-08-14T01:18:33;5.47;;;3.75;;
28968;SDS011;16076;51.194;6.642;2022-08-14T01:21:29;5.72;;;3.97;;
28968;SDS011;16076;51.194;6.642;2022-08-14T01:24:03;4.18;;;3.60;;
28968;SDS011;16076;51.194;6.642;2022-08-14T01:26:31;4.90;;;3.75;;
28968;SDS011;16076;51.194;6.642;2022-08-14T01:28:59;6.63;;;4.28;;
28968;SDS011;16076;51.194;6.642;2022-08-14T01:31:29;4.68;;;3.75;;
28968;SDS011;16076;51.194;6.642;2022-08-14T01:33:58;6.88;;;3.72;;
28968;SDS011;16076;51.194;6.642;2022-08-14T01:36:29;8.60;;;4.07;;
28968;SDS011;16076;51.194;6.642;2022-08-14T01:39:03;6.03;;;4.13;;
28968;SDS011;16076;51.194;6.642;2022-08-14T01:41:35;5.82;;;3.95;;
28968;SDS011;16076;51.194;6.642;2022-08-14T01:44:08;5.57;;;4.18;;
28968;SDS011;16076;51.194;6.642;2022-08-14T01:46:38;6.90;;;4.28;;
28968;SDS011;16076;51.194;6.642;2022-08-14T01:49:06;11.10;;;4.50;;
28968;SDS011;16076;51.194;6.642;2022-08-14T01:51:34;6.13;;;4.47;;
28968;SDS011;16076;51.194;6.642;2022-08-14T01:54:08;7.72;;;4.55;;
28968;SDS011;16076;51.194;6.642;2022-08-14T01:56:44;5.18;;;4.50;;
28968;SDS011;16076;51.194;6.642;2022-08-14T01:59:18;6.22;;;4.80;;
28968;SDS011;16076;51.194;6.642;2022-08-14T02:01:49;7.35;;;4.80;;
28968;SDS011;16076;51.194;6.642;2022-08-14T02:04:24;7.07;;;4.50;;
28968;SDS011;16076;51.194;6.642;2022-08-14T02:06:53;7.80;;;4.80;;
28968;SDS011;16076;51.194;6.642;2022-08-14T02:09:22;6.05;;;4.40;;
28968;SDS011;16076;51.194;6.642;2022-08-14T02:11:52;8.85;;;4.90;;
28968;SDS011;16076;51.194;6.642;2022-08-14T02:14:17;8.43;;;4.70;;
28968;SDS011;16076;51.194;6.642;2022-08-14T02:16:48;6.22;;;4.40;;
28968;SDS011;16076;51.194;6.642;2022-08-14T02:19:22;10.13;;;4.50;;
28968;SDS011;16076;51.194;6.642;2022-08-14T02:21:52;7.32;;;4.72;;
28968;SDS011;16076;51.194;6.642;2022-08-14T02:24:30;7.22;;;4.85;;
28968;SDS011;16076;51.194;6.642;2022-08-14T02:29:47;7.50;;;5.13;;
28968;SDS011;16076;51.194;6.642;2022-08-14T02:32:15;5.70;;;4.50;;
28968;SDS011;16076;51.194;6.642;2022-08-14T02:34:44;5.93;;;4.95;;
28968;SDS011;16076;51.194;6.642;2022-08-14T02:37:15;5.03;;;4.35;;
28968;SDS011;16076;51.194;6.642;2022-08-14T02:39:44;8.17;;;5.10;;
28968;SDS011;16076;51.194;6.642;2022-08-14T02:42:12;6.88;;;4.65;;
28968;SDS011;16076;51.194;6.642;2022-08-14T02:44:47;9.00;;;5.03;;
28968;SDS011;16076;51.194;6.642;2022-08-14T02:47:18;7.05;;;4.68;;
28968;SDS011;16076;51.194;6.642;2022-08-14T02:49:47;7.63;;;4.93;;
28968;SDS011;16076;51.194;6.642;2022-08-14T02:52:15;7.05;;;5.22;;
28968;SDS011;16076;51.194;6.642;2022-08-14T02:54:44;9.50;;;5.20;;
28968;SDS011;16076;51.194;6.642;2022-08-14T02:57:12;6.35;;;5.22;;
28968;SDS011;16076;51.194;6.642;2022-08-14T02:59:40;5.68;;;4.80;;
28968;SDS011;16076;51.194;6.642;2022-08-14T03:02:10;6.57;;;5.28;;
28968;SDS011;16076;51.194;6.642;2022-08-14T03:04:37;5.20;;;4.63;;
28968;SDS011;16076;51.194;6.642;2022-08-14T03:07:06;8.02;;;5.00;;
28968;SDS011;16076;51.194;6.642;2022-08-14T03:09:37;7.60;;;5.03;;
28968;SDS011;16076;51.194;6.642;2022-08-14T03:12:06;12.10;;;5.45;;
28968;SDS011;16076;51.194;6.642;2022-08-14T03:14:34;9.70;;;5.22;;
28968;SDS011;16076;51.194;6.642;2022-08-14T03:17:23;6.93;;;5.30;;
28968;SDS011;16076;51.194;6.642;2022-08-14T03:19:57;5.70;;;5.03;;
28968;SDS011;16076;51.194;6.642;2022-08-14T03:22:25;9.63;;;5.68;;
28968;SDS011;16076;51.194;6.642;2022-08-14T03:24:51;9.02;;;5.10;;
28968;SDS011;16076;51.194;6.642;2022-08-14T03:27:17;9.93;;;5.63;;
28968;SDS011;16076;51.194;6.642;2022-08-14T03:29:46;10.48;;;6.18;;
28968;SDS011;16076;51.194;6.642;2022-08-14T03:32:12;12.23;;;6.13;;
28968;SDS011;16076;51.194;6.642;2022-08-14T03:34:38;7.25;;;5.72;;
28968;SDS011;16076;51.194;6.642;2022-08-14T03:37:10;7.93;;;6.28;;
28968;SDS011;16076;51.194;6.642;2022-08-14T03:39:36;6.50;;;5.50;;
28968;SDS011;16076;51.194;6.642;2022-08-14T03:42:04;10.35;;;6.55;;
28968;SDS011;16076;51.194;6.642;2022-08-14T03:44:33;8.82;;;6.35;;
28968;SDS011;16076;51.194;6.642;2022-08-14T03:47:01;12.23;;;6.30;;
28968;SDS011;16076;51.194;6.642;2022-08-14T03:49:27;6.88;;;5.70;;
28968;SDS011;16076;51.194;6.642;2022-08-14T03:51:56;8.30;;;6.05;;
28968;SDS011;16076;51.194;6.642;2022-08-14T03:54:25;10.60;;;5.82;;
28968;SDS011;16076;51.194;6.642;2022-08-14T03:56:59;10.45;;;6.25;;
28968;SDS011;16076;51.194;6.642;2022-08-14T03:59:26;11.80;;;5.78;;
28968;SDS011;16076;51.194;6.642;2022-08-14T04:01:59;8.23;;;5.38;;
28968;SDS011;16076;51.194;6.642;2022-08-14T04:04:28;6.53;;;5.50;;
28968;SDS011;16076;51.194;6.642;2022-08-14T04:06:58;7.00;;;5.72;;
28968;SDS011;16076;51.194;6.642;2022-08-14T04:09:25;8.60;;;5.50;;
28968;SDS011;16076;51.194;6.642;2022-08-14T04:11:51;6.65;;;5.75;;
28968;SDS011;16076;51.194;6.642;2022-08-14T04:14:17;8.57;;;5.75;;
28968;SDS011;16076;51.194;6.642;2022-08-14T04:16:54;7.38;;;6.10;;
28968;SDS011;16076;51.194;6.642;2022-08-14T04:19:52;6.93;;;6.22;;
28968;SDS011;16076;51.194;6.642;2022-08-14T04:22:17;9.35;;;5.93;;
28968;SDS011;16076;51.194;6.642;2022-08-14T04:24:44;8.60;;;5.90;;
28968;SDS011;16076;51.194;6.642;2022-08-14T04:27:13;13.73;;;6.55;;
28968;SDS011;16076;51.194;6.642;2022-08-14T04:29:41;8.45;;;6.05;;
28968;SDS011;16076;51.194;6.642;2022-08-14T04:32:19;9.18;;;6.00;;
28968;SDS011;16076;51.194;6.642;2022-08-14T04:34:47;6.85;;;6.15;;
28968;SDS011;16076;51.194;6.642;2022-08-14T04:37:22;8.85;;;6.40;;
28968;SDS011;16076;51.194;6.642;2022-08-14T04:40:13;8.70;;;6.90;;
28968;SDS011;16076;51.194;6.642;2022-08-14T04:42:57;9.98;;;5.93;;
28968;SDS011;16076;51.194;6.642;2022-08-14T04:45:42;10.98;;;6.25;;
28968;SDS011;16076;51.194;6.642;2022-08-14T04:48:17;6.57;;;5.70;;
28968;SDS011;16076;51.194;6.642;2022-08-14T04:53:18;8.63;;;7.15;;
28968;SDS011;16076;51.194;6.642;2022-08-14T04:55:55;8.48;;;6.53;;
28968;SDS011;16076;51.194;6.642;2022-08-14T04:58:25;11.30;;;6.40;;
28968;SDS011;16076;51.194;6.642;2022-08-14T05:01:14;8.00;;;6.53;;
28968;SDS011;16076;51.194;6.642;2022-08-14T05:03:54;9.13;;;6.43;;
28968;SDS011;16076;51.194;6.642;2022-08-14T05:06:22;9.13;;;5.95;;
28968;SDS011;16076;51.194;6.642;2022-08-14T05:08:48;10.32;;;6.72;;
28968;SDS011;16076;51.194;6.642;2022-08-14T05:11:23;8.93;;;6.60;;
28968;SDS011;16076;51.194;6.642;2022-08-14T05:13:49;8.80;;;6.72;;
28968;SDS011;16076;51.194;6.642;2022-08-14T05:18:46;11.27;;;6.88;;
28968;SDS011;16076;51.194;6.642;2022-08-14T05:21:13;8.35;;;6.82;;
28968;SDS011;16076;51.194;6.642;2022-08-14T05:23:42;8.30;;;6.50;;
28968;SDS011;16076;51.194;6.642;2022-08-14T05:26:08;7.05;;;6.35;;
28968;SDS011;16076;51.194;6.642;2022-08-14T05:28:37;8.90;;;6.78;;
28968;SDS011;16076;51.194;6.642;2022-08-14T05:31:07;14.95;;;6.78;;
28968;SDS011;16076;51.194;6.642;2022-08-14T05:33:37;9.05;;;7.10;;
28968;SDS011;16076;51.194;6.642;2022-08-14T05:36:06;7.82;;;6.10;;
28968;SDS011;16076;51.194;6.642;2022-08-14T05:38:37;9.38;;;5.93;;
28968;SDS011;16076;51.194;6.642;2022-08-14T05:41:09;9.10;;;6.47;;
28968;SDS011;16076;51.194;6.642;2022-08-14T05:43:39;7.55;;;6.28;;
28968;SDS011;16076;51.194;6.642;2022-08-14T05:46:10;8.85;;;6.78;;
28968;SDS011;16076;51.194;6.642;2022-08-14T05:48:39;9.10;;;5.85;;
28968;SDS011;16076;51.194;6.642;2022-08-14T05:51:05;8.73;;;6.63;;
28968;SDS011;16076;51.194;6.642;2022-08-14T05:53:31;11.40;;;7.00;;
28968;SDS011;16076;51.194;6.642;2022-08-14T05:55:57;8.45;;;7.07;;
28968;SDS011;16076;51.194;6.642;2022-08-14T05:58:26;7.95;;;6.88;;
28968;SDS011;16076;51.194;6.642;2022-08-14T06:00:54;9.25;;;7.40;;
28968;SDS011;16076;51.194;6.642;2022-08-14T06:03:21;10.65;;;7.68;;
28968;SDS011;16076;51.194;6.642;2022-08-14T06:05:48;8.93;;;6.88;;
28968;SDS011;16076;51.194;6.642;2022-08-14T06:08:26;8.07;;;6.60;;
28968;SDS011;16076;51.194;6.642;2022-08-14T06:10:56;11.32;;;6.47;;
28968;SDS011;16076;51.194;6.642;2022-08-14T06:13:36;13.43;;;7.63;;
28968;SDS011;16076;51.194;6.642;2022-08-14T06:16:06;10.48;;;7.35;;
28968;SDS011;16076;51.194;6.642;2022-08-14T06:18:41;9.23;;;6.70;;
28968;SDS011;16076;51.194;6.642;2022-08-14T06:21:09;9.45;;;7.20;;
28968;SDS011;16076;51.194;6.642;2022-08-14T06:23:39;9.18;;;7.10;;
28968;SDS011;16076;51.194;6.642;2022-08-14T06:26:05;8.68;;;6.28;;
28968;SDS011;16076;51.194;6.642;2022-08-14T06:28:31;11.25;;;6.60;;
28968;SDS011;16076;51.194;6.642;2022-08-14T06:31:03;12.27;;;6.38;;
28968;SDS011;16076;51.194;6.642;2022-08-14T06:33:31;9.50;;;6.40;;
28968;SDS011;16076;51.194;6.642;2022-08-14T06:36:02;10.10;;;7.35;;
28968;SDS011;16076;51.194;6.642;2022-08-14T06:38:33;9.13;;;6.97;;
28968;SDS011;16076;51.194;6.642;2022-08-14T06:41:02;12.45;;;6.55;;
28968;SDS011;16076;51.194;6.642;2022-08-14T06:43:33;11.02;;;7.65;;
28968;SDS011;16076;51.194;6.642;2022-08-14T06:46:01;10.60;;;7.07;;
28968;SDS011;16076;51.194;6.642;2022-08-14T06:48:30;7.90;;;6.70;;
28968;SDS011;16076;51.194;6.642;2022-08-14T06:50:59;12.07;;;6.75;;
28968;SDS011;16076;51.194;6.642;2022-08-14T06:53:27;9.75;;;6.57;;
28968;SDS011;16076;51.194;6.642;2022-08-14T06:55:53;9.20;;;7.28;;
28968;SDS011;16076;51.194;6.642;2022-08-14T06:58:24;10.32;;;6.68;;
28968;SDS011;16076;51.194;6.642;2022-08-14T07:00:50;8.48;;;6.43;;
28968;SDS011;16076;51.194;6.642;2022-08-14T07:03:34;10.70;;;6.70;;
28968;SDS011;16076;51.194;6.642;2022-08-14T07:06:21;10.68;;;6.88;;
28968;SDS011;16076;51.194;6.642;2022-08-14T07:08:49;8.73;;;6.68;;
28968;SDS011;16076;51.194;6.642;2022-08-14T07:11:21;7.45;;;6.60;;
28968;SDS011;16076;51.194;6.642;2022-08-14T07:13:50;8.60;;;6.65;;
28968;SDS011;16076;51.194;6.642;2022-08-14T07:16:15;8.25;;;6.95;;
28968;SDS011;16076;51.194;6.642;2022-08-14T07:18:46;8.48;;;6.80;;
28968;SDS011;16076;51.194;6.642;2022-08-14T07:21:15;7.88;;;6.05;;
28968;SDS011;16076;51.194;6.642;2022-08-14T07:23:44;10.05;;;6.40;;
28968;SDS011;16076;51.194;6.642;2022-08-14T07:26:12;7.15;;;6.38;;
28968;SDS011;16076;51.194;6.642;2022-08-14T07:28:45;11.13;;;6.82;;
28968;SDS011;16076;51.194;6.642;2022-08-14T07:31:13;8.27;;;7.13;;
28968;SDS011;16076;51.194;6.642;2022-08-14T07:33:42;7.65;;;6.22;;
28968;SDS011;16076;51.194;6.642;2022-08-14T07:36:19;8.13;;;6.55;;
28968;SDS011;16076;51.194;6.642;2022-08-14T07:38:48;8.10;;;5.93;;
28968;SDS011;16076;51.194;6.642;2022-08-14T07:44:05;7.95;;;5.97;;
28968;SDS011;16076;51.194;6.642;2022-08-14T07:46:31;7.03;;;5.75;;
28968;SDS011;16076;51.194;6.642;2022-08-14T07:49:03;8.32;;;6.38;;
28968;SDS011;16076;51.194;6.642;2022-08-14T07:51:29;7.35;;;6.28;;
28968;SDS011;16076;51.194;6.642;2022-08-14T07:53:57;7.53;;;5.53;;
28968;SDS011;16076;51.194;6.642;2022-08-14T07:56:26;15.23;;;6.45;;
28968;SDS011;16076;51.194;6.642;2022-08-14T07:58:52;8.73;;;5.90;;
28968;SDS011;16076;51.194;6.642;2022-08-14T08:01:21;7.78;;;5.90;;
28968;SDS011;16076;51.194;6.642;2022-08-14T08:03:47;7.82;;;5.70;;
28968;SDS011;16076;51.194;6.642;2022-08-14T08:06:16;8.18;;;6.10;;
28968;SDS011;16076;51.194;6.642;2022-08-14T08:08:47;7.43;;;5.80;;
28968;SDS011;16076;51.194;6.642;2022-08-14T08:11:32;7.75;;;5.75;;
28968;SDS011;16076;51.194;6.642;2022-08-14T08:14:05;7.07;;;5.63;;
28968;SDS011;16076;51.194;6.642;2022-08-14T08:16:32;7.32;;;6.20;;
28968;SDS011;16076;51.194;6.642;2022-08-14T08:19:00;6.28;;;5.68;;
28968;SDS011;16076;51.194;6.642;2022-08-14T08:21:27;6.05;;;5.28;;
28968;SDS011;16076;51.194;6.642;2022-08-14T08:23:55;6.03;;;5.15;;
28968;SDS011;16076;51.194;6.642;2022-08-14T08:26:27;8.30;;;5.47;;
28968;SDS011;16076;51.194;6.642;2022-08-14T08:28:57;9.00;;;5.30;;
28968;SDS011;16076;51.194;6.642;2022-08-14T08:31:26;7.90;;;5.65;;
28968;SDS011;16076;51.194;6.642;2022-08-14T08:34:09;7.70;;;4.97;;
28968;SDS011;16076;51.194;6.642;2022-08-14T08:36:40;6.80;;;5.20;;
28968;SDS011;16076;51.194;6.642;2022-08-14T08:39:09;8.52;;;5.63;;
28968;SDS011;16076;51.194;6.642;2022-08-14T08:41:42;8.80;;;5.55;;
28968;SDS011;16076;51.194;6.642;2022-08-14T08:44:13;8.68;;;4.97;;
28968;SDS011;16076;51.194;6.642;2022-08-14T08:46:42;7.78;;;5.20;;
28968;SDS011;16076;51.194;6.642;2022-08-14T08:49:20;5.75;;;4.78;;
28968;SDS011;16076;51.194;6.642;2022-08-14T08:52:03;5.85;;;5.10;;
28968;SDS011;16076;51.194;6.642;2022-08-14T08:54:34;7.10;;;4.90;;
28968;SDS011;16076;51.194;6.642;2022-08-14T08:57:20;5.30;;;4.80;;
28968;SDS011;16076;51.194;6.642;2022-08-14T08:59:54;8.13;;;5.18;;
28968;SDS011;16076;51.194;6.642;2022-08-14T09:02:25;6.32;;;4.78;;
28968;SDS011;16076;51.194;6.642;2022-08-14T09:04:51;5.78;;;5.18;;
28968;SDS011;16076;51.194;6.642;2022-08-14T09:07:27;6.40;;;5.05;;
28968;SDS011;16076;51.194;6.642;2022-08-14T09:09:55;5.82;;;4.80;;
28968;SDS011;16076;51.194;6.642;2022-08-14T09:12:28;5.20;;;4.70;;
28968;SDS011;16076;51.194;6.642;2022-08-14T09:15:03;5.22;;;4.40;;
28968;SDS011;16076;51.194;6.642;2022-08-14T09:17:31;12.50;;;4.53;;
28968;SDS011;16076;51.194;6.642;2022-08-14T09:19:59;6.65;;;4.50;;
28968;SDS011;16076;51.194;6.642;2022-08-14T09:22:29;6.10;;;4.43;;
28968;SDS011;16076;51.194;6.642;2022-08-14T09:24:57;6.43;;;4.82;;
28968;SDS011;16076;51.194;6.642;2022-08-14T09:27:29;5.28;;;4.43;;
28968;SDS011;16076;51.194;6.642;2022-08-14T09:30:01;7.00;;;5.03;;
28968;SDS011;16076;51.194;6.642;2022-08-14T09:32:39;9.40;;;4.55;;
28968;SDS011;16076;51.194;6.642;2022-08-14T09:38:53;5.07;;;4.30;;
28968;SDS011;16076;51.194;6.642;2022-08-14T09:50:31;8.25;;;4.32;;
28968;SDS011;16076;51.194;6.642;2022-08-14T09:53:15;4.90;;;4.00;;
28968;SDS011;16076;51.194;6.642;2022-08-14T09:55:58;8.75;;;4.40;;
28968;SDS011;16076;51.194;6.642;2022-08-14T09:58:34;6.00;;;4.03;;
28968;SDS011;16076;51.194;6.642;2022-08-14T10:01:12;4.15;;;3.47;;
28968;SDS011;16076;51.194;6.642;2022-08-14T10:03:54;3.13;;;2.60;;
28968;SDS011;16076;51.194;6.642;2022-08-14T10:11:28;4.35;;;3.80;;
28968;SDS011;16076;51.194;6.642;2022-08-14T10:14:11;10.05;;;3.42;;
28968;SDS011;16076;51.194;6.642;2022-08-14T10:16:46;4.50;;;2.63;;
28968;SDS011;16076;51.194;6.642;2022-08-14T10:19:20;4.05;;;3.20;;
28968;SDS011;16076;51.194;6.642;2022-08-14T10:21:59;4.90;;;2.58;;
28968;SDS011;16076;51.194;6.642;2022-08-14T10:24:32;5.15;;;3.22;;
28968;SDS011;16076;51.194;6.642;2022-08-14T10:27:17;6.75;;;3.08;;
28968;SDS011;16076;51.194;6.642;2022-08-14T10:32:24;9.23;;;4.05;;
28968;SDS011;16076;51.194;6.642;2022-08-14T10:35:03;6.45;;;3.40;;
28968;SDS011;16076;51.194;6.642;2022-08-14T10:37:37;4.65;;;3.70;;
28968;SDS011;16076;51.194;6.642;2022-08-14T10:40:08;4.55;;;3.30;;
28968;SDS011;16076;51.194;6.642;2022-08-14T10:42:37;3.88;;;3.10;;
28968;SDS011;16076;51.194;6.642;2022-08-14T10:45:17;4.85;;;3.85;;
28968;SDS011;16076;51.194;6.642;2022-08-14T10:47:47;7.10;;;3.20;;
28968;SDS011;16076;51.194;6.642;2022-08-14T10:50:14;4.55;;;3.17;;
28968;SDS011;16076;51.194;6.642;2022-08-14T10:52:55;4.65;;;2.78;;
28968;SDS011;16076;51.194;6.642;2022-08-14T10:55:32;4.68;;;3.03;;
28968;SDS011;16076;51.194;6.642;2022-08-14T10:58:04;7.38;;;2.72;;
28968;SDS011;16076;51.194;6.642;2022-08-14T11:00:35;3.58;;;2.90;;
28968;SDS011;16076;51.194;6.642;2022-08-14T11:03:10;2.83;;;2.55;;
28968;SDS011;16076;51.194;6.642;2022-08-14T11:05:43;4.75;;;2.70;;
28968;SDS011;16076;51.194;6.642;2022-08-14T11:08:32;4.70;;;2.63;;
28968;SDS011;16076;51.194;6.642;2022-08-14T11:11:02;3.25;;;2.95;;
28968;SDS011;16076;51.194;6.642;2022-08-14T11:13:31;4.18;;;2.85;;
28968;SDS011;16076;51.194;6.642;2022-08-14T11:15:58;2.90;;;2.53;;
28968;SDS011;16076;51.194;6.642;2022-08-14T11:18:29;5.43;;;2.90;;
28968;SDS011;16076;51.194;6.642;2022-08-14T11:20:58;3.75;;;2.63;;
28968;SDS011;16076;51.194;6.642;2022-08-14T11:25:59;3.08;;;2.70;;
28968;SDS011;16076;51.194;6.642;2022-08-14T11:28:27;5.60;;;2.85;;
28968;SDS011;16076;51.194;6.642;2022-08-14T11:31:02;3.30;;;2.75;;
28968;SDS011;16076;51.194;6.642;2022-08-14T11:33:34;3.95;;;2.92;;
28968;SDS011;16076;51.194;6.642;2022-08-14T11:36:06;2.95;;;2.35;;
28968;SDS011;16076;51.194;6.642;2022-08-14T11:38:38;3.45;;;2.90;;
28968;SDS011;16076;51.194;6.642;2022-08-14T11:41:14;3.30;;;2.95;;
28968;SDS011;16076;51.194;6.642;2022-08-14T11:43:47;6.07;;;2.95;;
28968;SDS011;16076;51.194;6.642;2022-08-14T11:46:15;2.85;;;2.63;;
28968;SDS011;16076;51.194;6.642;2022-08-14T11:48:45;3.67;;;2.92;;
28968;SDS011;16076;51.194;6.642;2022-08-14T11:51:22;3.67;;;2.55;;
28968;SDS011;16076;51.194;6.642;2022-08-14T11:53:52;3.50;;;2.93;;
28968;SDS011;16076;51.194;6.642;2022-08-14T11:56:32;4.07;;;2.80;;
28968;SDS011;16076;51.194;6.642;2022-08-14T11:59:06;4.03;;;2.13;;
28968;SDS011;16076;51.194;6.642;2022-08-14T12:01:38;3.42;;;2.50;;
28968;SDS011;16076;51.194;6.642;2022-08-14T12:06:48;2.83;;;2.50;;
28968;SDS011;16076;51.194;6.642;2022-08-14T12:09:30;4.10;;;2.30;;
28968;SDS011;16076;51.194;6.642;2022-08-14T12:12:01;4.68;;;2.60;;
28968;SDS011;16076;51.194;6.642;2022-08-14T12:14:52;2.50;;;2.30;;
28968;SDS011;16076;51.194;6.642;2022-08-14T12:17:25;2.92;;;2.33;;
28968;SDS011;16076;51.194;6.642;2022-08-14T12:19:56;2.72;;;2.35;;
28968;SDS011;16076;51.194;6.642;2022-08-14T12:25:03;3.30;;;2.53;;
28968;SDS011;16076;51.194;6.642;2022-08-14T12:27:50;5.55;;;2.40;;
28968;SDS011;16076;51.194;6.642;2022-08-14T12:30:30;2.60;;;2.40;;
28968;SDS011;16076;51.194;6.642;2022-08-14T12:33:05;3.67;;;2.50;;
28968;SDS011;16076;51.194;6.642;2022-08-14T12:35:44;3.10;;;2.80;;
28968;SDS011;16076;51.194;6.642;2022-08-14T12:38:11;3.38;;;2.47;;
28968;SDS011;16076;51.194;6.642;2022-08-14T12:40:45;7.07;;;2.60;;
28968;SDS011;16076;51.194;6.642;2022-08-14T12:43:13;3.22;;;2.67;;
28968;SDS011;16076;51.194;6.642;2022-08-14T12:45:47;3.38;;;2.75;;
28968;SDS011;16076;51.194;6.642;2022-08-14T12:48:19;2.97;;;2.50;;
28968;SDS011;16076;51.194;6.642;2022-08-14T12:51:03;5.65;;;2.80;;
28968;SDS011;16076;51.194;6.642;2022-08-14T12:53:42;2.88;;;2.53;;
28968;SDS011;16076;51.194;6.642;2022-08-14T12:56:18;3.47;;;2.58;;
28968;SDS011;16076;51.194;6.642;2022-08-14T13:01:19;2.75;;;2.45;;
28968;SDS011;16076;51.194;6.642;2022-08-14T13:03:50;2.78;;;2.38;;
28968;SDS011;16076;51.194;6.642;2022-08-14T13:06:29;4.72;;;2.40;;
28968;SDS011;16076;51.194;6.642;2022-08-14T13:08:55;3.13;;;2.20;;
28968;SDS011;16076;51.194;6.642;2022-08-14T13:11:31;3.63;;;2.30;;
28968;SDS011;16076;51.194;6.642;2022-08-14T13:16:41;6.85;;;2.88;;
28968;SDS011;16076;51.194;6.642;2022-08-14T13:19:13;2.85;;;2.13;;
28968;SDS011;16076;51.194;6.642;2022-08-14T13:21:46;2.85;;;2.35;;
28968;SDS011;16076;51.194;6.642;2022-08-14T13:24:18;3.10;;;2.42;;
28968;SDS011;16076;51.194;6.642;2022-08-14T13:26:49;2.20;;;2.00;;
28968;SDS011;16076;51.194;6.642;2022-08-14T13:29:21;2.58;;;2.35;;
28968;SDS011;16076;51.194;6.642;2022-08-14T13:31:54;3.10;;;2.28;;
28968;SDS011;16076;51.194;6.642;2022-08-14T13:34:23;5.03;;;2.10;;
28968;SDS011;16076;51.194;6.642;2022-08-14T13:36:53;3.40;;;1.75;;
28968;SDS011;16076;51.194;6.642;2022-08-14T13:39:23;3.70;;;2.03;;
28968;SDS011;16076;51.194;6.642;2022-08-14T13:41:50;2.42;;;2.22;;
28968;SDS011;16076;51.194;6.642;2022-08-14T13:44:19;3.65;;;1.90;;
28968;SDS011;16076;51.194;6.642;2022-08-14T13:46:49;6.38;;;1.90;;
28968;SDS011;16076;51.194;6.642;2022-08-14T13:49:14;2.40;;;2.20;;
28968;SDS011;16076;51.194;6.642;2022-08-14T13:51:46;4.57;;;1.90;;
28968;SDS011;16076;51.194;6.642;2022-08-14T13:54:15;3.58;;;1.85;;
28968;SDS011;16076;51.194;6.642;2022-08-14T13:56:45;4.35;;;2.20;;
28968;SDS011;16076;51.194;6.642;2022-08-14T13:59:14;4.10;;;1.95;;
28968;SDS011;16076;51.194;6.642;2022-08-14T14:01:41;5.10;;;1.98;;
28968;SDS011;16076;51.194;6.642;2022-08-14T14:04:13;3.47;;;1.98;;
28968;SDS011;16076;51.194;6.642;2022-08-14T14:06:42;2.25;;;2.05;;
28968;SDS011;16076;51.194;6.642;2022-08-14T14:09:13;2.22;;;1.98;;
28968;SDS011;16076;51.194;6.642;2022-08-14T14:11:47;3.97;;;1.50;;
28968;SDS011;16076;51.194;6.642;2022-08-14T14:14:16;5.97;;;2.20;;
28968;SDS011;16076;51.194;6.642;2022-08-14T14:16:44;4.35;;;1.80;;
28968;SDS011;16076;51.194;6.642;2022-08-14T14:19:11;2.13;;;1.92;;
28968;SDS011;16076;51.194;6.642;2022-08-14T14:21:43;2.05;;;1.73;;
28968;SDS011;16076;51.194;6.642;2022-08-14T14:24:13;4.40;;;1.83;;
28968;SDS011;16076;51.194;6.642;2022-08-14T14:26:51;4.00;;;1.95;;
28968;SDS011;16076;51.194;6.642;2022-08-14T14:29:23;5.63;;;1.92;;
28968;SDS011;16076;51.194;6.642;2022-08-14T14:31:50;2.75;;;2.10;;
28968;SDS011;16076;51.194;6.642;2022-08-14T14:34:17;3.65;;;2.25;;
28968;SDS011;16076;51.194;6.642;2022-08-14T14:36:52;5.95;;;1.98;;
28968;SDS011;16076;51.194;6.642;2022-08-14T14:39:31;2.40;;;1.88;;
28968;SDS011;16076;51.194;6.642;2022-08-14T14:42:00;2.55;;;2.17;;
28968;SDS011;16076;51.194;6.642;2022-08-14T14:44:34;4.05;;;1.98;;
28968;SDS011;16076;51.194;6.642;2022-08-14T14:47:13;1.98;;;1.67;;
28968;SDS011;16076;51.194;6.642;2022-08-14T14:49:45;7.25;;;2.00;;
28968;SDS011;16076;51.194;6.642;2022-08-14T14:52:13;6.25;;;2.35;;
28968;SDS011;16076;51.194;6.642;2022-08-14T14:54:40;2.22;;;1.80;;
28968;SDS011;16076;51.194;6.642;2022-08-14T14:57:08;2.92;;;1.95;;
28968;SDS011;16076;51.194;6.642;2022-08-14T15:02:06;3.63;;;2.10;;
28968;SDS011;16076;51.194;6.642;2022-08-14T15:04:37;4.70;;;2.40;;
28968;SDS011;16076;51.194;6.642;2022-08-14T15:07:04;2.75;;;2.08;;
28968;SDS011;16076;51.194;6.642;2022-08-14T15:09:32;3.70;;;2.20;;
28968;SDS011;16076;51.194;6.642;2022-08-14T15:12:00;2.40;;;2.20;;
28968;SDS011;16076;51.194;6.642;2022-08-14T15:14:29;3.35;;;2.15;;
28968;SDS011;16076;51.194;6.642;2022-08-14T15:16:58;2.67;;;1.90;;
28968;SDS011;16076;51.194;6.642;2022-08-14T15:19:24;2.30;;;2.03;;
28968;SDS011;16076;51.194;6.642;2022-08-14T15:21:53;3.90;;;2.03;;
28968;SDS011;16076;51.194;6.642;2022-08-14T15:24:21;5.80;;;2.30;;
28968;SDS011;16076;51.194;6.642;2022-08-14T15:26:49;3.57;;;2.47;;
28968;SDS011;16076;51.194;6.642;2022-08-14T15:29:17;2.85;;;2.55;;
28968;SDS011;16076;51.194;6.642;2022-08-14T15:31:52;2.42;;;2.10;;
28968;SDS011;16076;51.194;6.642;2022-08-14T15:34:21;2.55;;;2.22;;
28968;SDS011;16076;51.194;6.642;2022-08-14T15:36:46;3.03;;;2.20;;
28968;SDS011;16076;51.194;6.642;2022-08-14T15:39:13;4.10;;;2.20;;
28968;SDS011;16076;51.194;6.642;2022-08-14T15:41:39;2.45;;;2.13;;
28968;SDS011;16076;51.194;6.642;2022-08-14T15:44:05;2.30;;;2.10;;
28968;SDS011;16076;51.194;6.642;2022-08-14T15:46:32;2.42;;;2.22;;
28968;SDS011;16076;51.194;6.642;2022-08-14T15:49:01;2.33;;;2.13;;
28968;SDS011;16076;51.194;6.642;2022-08-14T15:51:27;2.97;;;2.33;;
28968;SDS011;16076;51.194;6.642;2022-08-14T15:53:56;3.55;;;2.22;;
28968;SDS011;16076;51.194;6.642;2022-08-14T15:56:22;2.28;;;2.08;;